Saturday, July 21, 2018, 12:21 AM GMT
Back to Local

CWTY, Trois Rivieres

Location: , , Canada Lat: 46.35
Local Time: 12:21 AM GMT ( 0:21 GMT) Lon: -72.517
Time Zone: GMT Elev: 19 ft

Show me the last for .
Show Coded

Time T Td Feel RH Dir Speed Gust Alt SLP Vis Weather Sky Remarks
2018-07-21 00:00 81 67 84 63 110° 2 - - 30.04 0 None
2018-07-20 23:00 81 63 83 53 140° 7 - - 30.04 0 None
2018-07-20 22:00 83 57 83 42 190° 2 - - 30.04 0 None
2018-07-20 21:00 84 53 - 35 230° 2 - - 30.06 0 None
2018-07-20 20:00 83 56 - 39 230° 6 - - 30.06 0 None
2018-07-20 19:00 81 58 81 46 220° 7 - - 30.08 0 None
2018-07-20 18:00 79 63 81 58 210° 6 - - 30.10 0 None
2018-07-20 17:00 79 60 80 52 220° 6 - - 30.11 0 None
2018-07-20 16:00 77 61 79 58 220° 5 - - 30.12 0 None
2018-07-20 15:00 73 58 76 59 230° 5 - - 30.13 0 None
2018-07-20 14:00 71 58 76 64 190° 8 - - 30.13 0 None
2018-07-20 13:00 68 59 - 71 200° 8 - - 30.13 0 None
2018-07-20 12:00 66 57 - 72 190° 5 - - 30.13 0 None
2018-07-20 11:00 65 56 - 73 180° 7 - - 30.11 0 None
2018-07-20 10:00 64 56 - 75 180° 5 - - 30.09 0 None
2018-07-20 09:00 65 57 - 73 180° 7 - - 30.07 0 None
2018-07-20 08:00 65 57 - 74 180° 7 - - 30.06 0 None
2018-07-20 07:00 66 56 - 70 190° 8 - - 30.05 0 None
2018-07-20 06:00 67 58 - 73 170° 8 - - 30.05 0 None
2018-07-20 05:00 69 59 - 69 190° 10 - - 30.05 0 None
2018-07-20 04:00 70 58 - 66 190° 10 - - 30.04 0 None
2018-07-20 03:00 71 59 76 65 190° 8 - - 30.03 0 None
2018-07-20 02:00 72 57 76 59 200° 8 - - 30.02 0 None
2018-07-20 01:00 73 57 77 56 180° 8 - - 30.01 0 None

Support USWX by starting your Amazon purchase here.